Estaciones Metar próximas

 

LELL - Sabadell, Spain
Distancia a la estación: E 18km
Actualizado: 01/10/2022 04:00
Despejado
Despejado
 Viento del O
Viento: O 6 km/h
Temperatura: 11°C
Rocío: 10°C
Humedad: 94%
Barómetro: 1020 hPa
Resumen: Despejado
Visibilidad: greater than 10 km
2022/10/01 02:00 LELL 010200Z AUTO 28003KT CAVOK 11/10 Q1020
LEBL - Barcelona Airpor, Spain
Distancia a la estación: SSE 33km
Actualizado: 01/10/2022 04:00
Despejado
Despejado
 Viento del NNO
Viento: NNO 19 km/h
Temperatura: 16°C
Rocío: 11°C
Humedad: 72%
Barómetro: 1019 hPa
Resumen: Despejado
Visibilidad: greater than 10 km
2022/10/01 02:00 LEBL 010200Z 33010KT CAVOK 16/11 Q1019 NOSIG
LERS - Reus (civ/Mil), Spain
Distancia a la estación: SO 75km
Actualizado: 01/10/2022 04:00
Despejado
Despejado
 Viento del NNE
Viento: NNE 7 km/h
Temperatura: 12°C
Rocío: 6°C
Humedad: 67%
Barómetro: 1020 hPa
Resumen: Despejado
Visibilidad: greater than 10 km
2022/10/01 02:00 LERS 010200Z AUTO 03004KT CAVOK 12/06 Q1020
 
LEGE - Gerona/Costa Bra, Spain
Distancia a la estación: ENE 83km
Actualizado: 01/10/2022 04:00
Nubes dispersas
Nubes dispersas
 Viento del calm
Viento: Calma
Temperatura: 11°C
Rocío: 9°C
Humedad: 88%
Barómetro: 1020 hPa
Nubes: Nubes dispersas
Visibilidad: 10 km
Detalle Nubes: Nubes dispersas 610 m
2022/10/01 02:00 LEGE 010200Z 00000KT 9999 FEW020 11/09 Q1020
LFMP - Perpignan/Rivesa, France
Distancia a la estación: NNE 155km
Actualizado: 01/10/2022 04:00
Despejado
Despejado
 Viento del ONO
Viento: ONO 19 km/h
Temperatura: 15°C
Rocío: 8°C
Humedad: 63%
Barómetro: 1020 hPa
Resumen: Despejado
Visibilidad: greater than 10 km
2022/10/01 02:00 LFMP 010200Z AUTO 30010KT CAVOK 15/08 Q1020
LFMK - Carcassonne/Salv, France
Distancia a la estación: N 191km
Actualizado: 01/10/2022 04:00
Despejado
Despejado
 Viento del O
Viento: O 9 km/h
Temperatura: 11°C
Rocío: 8°C
Humedad: 82%
Barómetro: 1020 hPa
Resumen: Despejado
Visibilidad: greater than 10 km
2022/10/01 02:00 LFMK 010200Z AUTO 27005KT 230V290 CAVOK 11/08 Q1020
 
LEHC - Huesca-Pirineos, Spain
Distancia a la estación: ONO 193km
Actualizado: 01/10/2022 04:00
Despejado
Despejado
 Viento del OSO
Viento: OSO 11 km/h
Temperatura: 9°C
Sensación Térmica: 7°C
Rocío: 6°C
Humedad: 82%
Barómetro: 1020 hPa
Resumen: Despejado
Visibilidad: greater than 10 km
2022/10/01 02:00 LEHC 010200Z AUTO 25006KT CAVOK 09/06 Q1020
LFMU - Beziers/Vias, France
Distancia a la estación: NNE 232km
Actualizado: 01/10/2022 04:00
Despejado
Despejado
 Viento del OSO
Viento: OSO 13 km/h
Temperatura: 12°C
Rocío: 7°C
Humedad: 72%
Barómetro: 1019 hPa
Resumen: Despejado
Visibilidad: greater than 10 km
2022/10/01 02:00 LFMU 010200Z AUTO 24007KT CAVOK 12/07 Q1019
LEPA - Palma De Mallorc, Spain
Distancia a la estación: SSE 233km
Actualizado: 01/10/2022 04:00
Nubes dispersas
Nubes dispersas
 Viento del ENE
Viento: ENE 6 km/h
Temperatura: 12°C
Rocío: 11°C
Humedad: 94%
Barómetro: 1020 hPa
Nubes: Nubes dispersas
Visibilidad: 10 km
Detalle Nubes: Nubes dispersas 1372 m
2022/10/01 02:00 LEPA 010200Z 06003KT 9999 FEW045 12/11 Q1020 NOSIG
 
LFBO - Toulouse/Blagnac, France
Distancia a la estación: N 236km
Actualizado: 01/10/2022 04:00
Despejado
Despejado
 Viento del S
Viento: S 7 km/h
Temperatura: 9°C
Sensación Térmica: 8°C
Rocío: 8°C
Humedad: 94%
Barómetro: 1020 hPa
Resumen: Despejado
Visibilidad: greater than 10 km
2022/10/01 02:00 LFBO 010200Z AUTO 17004KT CAVOK 09/08 Q1020 TEMPO 4000 BR
LFBT - Tarbes/Ossun, France
Distancia a la estación: NO 239km
Actualizado: 01/10/2022 04:00
Nubes dispersas
Nubes dispersas
 Viento del S
Viento: S 11 km/h
Temperatura: 9°C
Sensación Térmica: 7°C
Rocío: 6°C
Humedad: 82%
Barómetro: 1020 hPa
Nubes: Nubes dispersas
Visibilidad: 10 km
Detalle Nubes: Nubes dispersas 3048 m
2022/10/01 02:00 LFBT 010200Z AUTO 18006KT 9999 FEW100 09/06 Q1020 NOSIG
LEZG - Zaragoza (mil/Ci, Spain
Distancia a la estación: O 242km
Actualizado: 01/10/2022 04:00
Nubes dispersas
Nubes dispersas
 Viento del SO
Viento: SO 11 km/h
Temperatura: 13°C
Rocío: 9°C
Humedad: 77%
Barómetro: 1021 hPa
Nubes: Nubes dispersas
Visibilidad: 10 km
Detalle Nubes: Nubes dispersas 1524 m
2022/10/01 02:00 LEZG 010200Z 22006KT 9999 FEW050 13/09 Q1021